Time;durP1;ratioP1;P1;durP2;ratioP2;P2;SDS_P1;SDS_P2;PMS_P1;PMS_P2;Temp;Humidity;BMP_temperature;BMP_pressure;BME280_temperature;BME280_humidity;BME280_pressure;Samples;Min_cycle;Max_cycle;Signal;HPM_P1;HPM_P2
2021/11/21 00:01:13;;;;;;;14.33;8.00;;;10.80;99.90;;;;;;4904275;29;20443;-60
2021/11/21 00:03:45;;;;;;;18.30;9.30;;;10.80;99.90;;;;;;4903976;29;20471;-50
2021/11/21 00:06:12;;;;;;;18.13;10.00;;;10.70;99.90;;;;;;4904221;29;20455;-58
2021/11/21 00:08:41;;;;;;;18.90;9.67;;;10.80;99.90;;;;;;4903662;29;20459;-52
2021/11/21 00:11:08;;;;;;;20.90;9.63;;;10.80;99.90;;;;;;4903749;29;20484;-52
2021/11/21 00:13:36;;;;;;;21.90;9.60;;;10.80;99.90;;;;;;4903348;29;20479;-55
2021/11/21 00:16:04;;;;;;;19.33;9.93;;;10.80;99.90;;;;;;4903001;29;20467;-46
2021/11/21 00:18:31;;;;;;;21.63;10.50;;;10.80;99.90;;;;;;4903458;29;20474;-55
2021/11/21 00:21:00;;;;;;;21.83;9.70;;;10.80;99.90;;;;;;4903527;29;20433;-53
2021/11/21 00:23:27;;;;;;;18.97;10.10;;;10.80;99.90;;;;;;4903832;29;20444;-53
2021/11/21 00:25:54;;;;;;;18.77;8.23;;;10.80;99.90;;;;;;4903326;29;20450;-48
2021/11/21 00:28:21;;;;;;;18.47;9.90;;;10.80;99.90;;;;;;4903692;29;20450;-52
2021/11/21 00:30:48;;;;;;;18.40;9.37;;;10.80;99.90;;;;;;4904027;29;20456;-50
2021/11/21 00:33:15;;;;;;;17.67;9.50;;;10.80;99.90;;;;;;4903350;29;20451;-47
2021/11/21 00:35:42;;;;;;;19.17;8.80;;;10.80;99.90;;;;;;4903406;29;20522;-49
2021/11/21 00:38:10;;;;;;;14.97;8.70;;;10.80;99.90;;;;;;4903029;29;20483;-54
2021/11/21 00:40:37;;;;;;;18.93;9.30;;;10.80;99.90;;;;;;4902856;29;20443;-52
2021/11/21 00:43:04;;;;;;;21.80;10.43;;;10.80;99.90;;;;;;4903128;29;20458;-47
2021/11/21 00:45:32;;;;;;;18.83;9.50;;;10.80;99.90;;;;;;4902686;29;20463;-47
2021/11/21 00:48:00;;;;;;;17.40;9.20;;;10.70;99.90;;;;;;4902276;29;20522;-49
2021/11/21 00:50:32;;;;;;;15.63;9.63;;;10.80;99.90;;;;;;4902554;29;20439;-49
2021/11/21 00:53:02;;;;;;;23.03;10.30;;;10.80;99.90;;;;;;4902890;29;20463;-47
2021/11/21 00:55:38;;;;;;;18.70;8.43;;;10.70;99.90;;;;;;4902592;29;20431;-44
2021/11/21 00:58:06;;;;;;;15.10;8.17;;;10.70;99.90;;;;;;4902237;29;20471;-49
2021/11/21 01:00:34;;;;;;;19.43;8.70;;;10.70;99.90;;;;;;4902391;29;20482;-46
2021/11/21 01:03:01;;;;;;;16.23;7.80;;;10.70;99.90;;;;;;4901944;29;20427;-53
2021/11/21 01:05:29;;;;;;;17.87;9.40;;;10.70;99.90;;;;;;4901744;29;20467;-51
2021/11/21 01:07:56;;;;;;;16.70;9.33;;;10.70;99.90;;;;;;4902132;29;20473;-50
2021/11/21 01:10:23;;;;;;;20.13;8.50;;;10.60;99.90;;;;;;4901891;29;20471;-53
2021/11/21 01:12:53;;;;;;;19.33;8.80;;;10.70;99.90;;;;;;4902438;29;20435;-52
2021/11/21 01:15:23;;;;;;;17.33;8.53;;;10.70;99.90;;;;;;4901950;29;20501;-51
2021/11/21 01:17:51;;;;;;;21.83;7.97;;;10.70;99.90;;;;;;4902207;29;20544;-51
2021/11/21 01:20:20;;;;;;;19.10;9.37;;;10.70;99.90;;;;;;4902213;29;20471;-51
2021/11/21 01:22:47;;;;;;;24.23;8.97;;;10.60;99.90;;;;;;4901713;29;20447;-51
2021/11/21 01:25:14;;;;;;;18.60;8.77;;;10.60;99.90;;;;;;4901963;29;20510;-52
2021/11/21 01:27:45;;;;;;;19.87;8.57;;;10.60;99.90;;;;;;4902023;29;20479;-61
2021/11/21 01:30:16;;;;;;;18.20;10.20;;;10.60;99.90;;;;;;4902174;29;20475;-56
2021/11/21 01:32:51;;;;;;;13.93;8.20;;;10.60;99.90;;;;;;4901795;29;20456;-58
2021/11/21 01:35:17;;;;;;;19.37;9.00;;;10.60;99.90;;;;;;4901720;29;20470;-52
2021/11/21 01:37:45;;;;;;;20.43;9.57;;;10.50;99.90;;;;;;4902122;29;20487;-50
2021/11/21 01:40:14;;;;;;;17.40;8.80;;;10.50;99.90;;;;;;4901652;29;20478;-53
2021/11/21 01:42:42;;;;;;;18.50;8.83;;;10.50;99.90;;;;;;4901743;29;20451;-51
2021/11/21 01:45:10;;;;;;;15.67;8.30;;;10.50;99.90;;;;;;4901906;29;20459;-54
2021/11/21 01:47:40;;;;;;;15.63;8.37;;;10.50;99.90;;;;;;4901767;29;20448;-52
2021/11/21 01:50:09;;;;;;;17.07;8.43;;;10.50;99.90;;;;;;4901146;29;20467;-50
2021/11/21 01:52:36;;;;;;;13.77;7.17;;;10.50;99.90;;;;;;4901380;29;20451;-47
2021/11/21 01:55:03;;;;;;;18.60;10.10;;;10.50;99.90;;;;;;4901430;29;20493;-49
2021/11/21 01:57:30;;;;;;;15.60;7.53;;;10.50;99.90;;;;;;4900772;29;20483;-47
2021/11/21 02:00:01;;;;;;;14.53;7.23;;;10.50;99.90;;;;;;4901182;29;20496;-49
2021/11/21 02:02:28;;;;;;;13.60;8.33;;;10.50;99.90;;;;;;4901328;29;20474;-49
2021/11/21 02:04:57;;;;;;;17.50;8.63;;;10.50;99.90;;;;;;4901173;29;20455;-47
2021/11/21 02:07:24;;;;;;;15.60;7.67;;;10.50;99.90;;;;;;4901088;29;20471;-49
2021/11/21 02:09:51;;;;;;;13.27;7.17;;;10.50;99.90;;;;;;4901416;29;20478;-51
2021/11/21 02:12:17;;;;;;;17.30;9.60;;;10.50;99.90;;;;;;4901537;29;20448;-50
2021/11/21 02:14:44;;;;;;;20.03;8.90;;;10.40;99.90;;;;;;4901243;29;20470;-50
2021/11/21 02:17:11;;;;;;;14.47;7.40;;;10.40;99.90;;;;;;4903429;29;20439;-50
2021/11/21 02:19:38;;;;;;;20.20;9.63;;;10.40;99.90;;;;;;4904913;29;20471;-49
2021/11/21 02:22:07;;;;;;;13.17;7.37;;;10.40;99.90;;;;;;4904373;29;20442;-47
2021/11/21 02:24:34;;;;;;;14.00;8.50;;;10.50;99.90;;;;;;4904670;29;20468;-49
2021/11/21 02:27:02;;;;;;;16.40;8.30;;;10.50;99.90;;;;;;4905091;29;20467;-49
2021/11/21 02:29:29;;;;;;;19.47;9.10;;;10.40;99.90;;;;;;4904438;29;20447;-50
2021/11/21 02:31:56;;;;;;;21.37;10.37;;;10.40;99.90;;;;;;4904757;29;20439;-49
2021/11/21 02:34:23;;;;;;;20.27;9.10;;;10.40;99.90;;;;;;4904386;29;20487;-51
2021/11/21 02:36:51;;;;;;;15.77;7.10;;;10.40;99.90;;;;;;4904657;29;20466;-51
2021/11/21 02:39:20;;;;;;;17.80;7.87;;;10.40;99.90;;;;;;4904650;29;20517;-53
2021/11/21 02:41:47;;;;;;;17.00;9.77;;;10.40;99.90;;;;;;4904705;29;20428;-50
2021/11/21 02:44:14;;;;;;;14.70;7.77;;;10.40;99.90;;;;;;4904279;29;20507;-48
2021/11/21 02:46:41;;;;;;;24.03;9.57;;;10.40;99.90;;;;;;4904423;29;20451;-48
2021/11/21 02:49:08;;;;;;;19.30;10.10;;;10.50;99.90;;;;;;4904506;29;20458;-53
2021/11/21 02:51:35;;;;;;;21.10;10.57;;;10.40;99.90;;;;;;4904589;29;20451;-49
2021/11/21 02:54:02;;;;;;;16.60;9.17;;;10.40;99.90;;;;;;4904605;29;20439;-48
2021/11/21 02:56:30;;;;;;;19.97;9.40;;;10.30;99.90;;;;;;4904799;29;20439;-55
2021/11/21 02:58:59;;;;;;;18.00;8.77;;;10.30;99.90;;;;;;4904252;29;20550;-58
2021/11/21 03:01:28;;;;;;;17.27;10.37;;;10.30;99.90;;;;;;4904216;29;20458;-47
2021/11/21 03:03:56;;;;;;;17.77;8.50;;;10.40;99.90;;;;;;4904511;29;20461;-53
2021/11/21 03:06:23;;;;;;;23.30;9.70;;;10.40;99.90;;;;;;4904401;29;20436;-49
2021/11/21 03:08:51;;;;;;;14.90;8.33;;;10.40;99.90;;;;;;4904050;29;20466;-53
2021/11/21 03:11:27;;;;;;;20.13;10.03;;;10.40;99.90;;;;;;4903856;29;20427;-53
2021/11/21 03:13:59;;;;;;;19.13;9.30;;;10.40;99.90;;;;;;4903692;29;20471;-49
2021/11/21 03:16:27;;;;;;;15.40;8.37;;;10.40;99.90;;;;;;4904057;29;20499;-50
2021/11/21 03:18:54;;;;;;;16.60;10.43;;;10.40;99.90;;;;;;4903919;29;20532;-46
2021/11/21 03:21:21;;;;;;;19.73;10.23;;;10.40;99.90;;;;;;4903887;29;20464;-48
2021/11/21 03:23:48;;;;;;;16.73;9.87;;;10.40;99.90;;;;;;4904081;29;20465;-47
2021/11/21 03:26:16;;;;;;;21.23;10.23;;;10.40;99.90;;;;;;4904049;29;20467;-53
2021/11/21 03:28:43;;;;;;;16.77;9.63;;;10.40;99.90;;;;;;4903540;29;20462;-51
2021/11/21 03:31:11;;;;;;;16.77;8.50;;;10.30;99.90;;;;;;4903299;29;20466;-48
2021/11/21 03:33:39;;;;;;;20.80;10.60;;;10.30;99.90;;;;;;4904221;29;20424;-52
2021/11/21 03:36:06;;;;;;;21.33;10.23;;;10.30;99.90;;;;;;4903262;29;20503;-50
2021/11/21 03:38:34;;;;;;;17.73;8.87;;;10.30;99.90;;;;;;4903431;29;20494;-49
2021/11/21 03:41:01;;;;;;;21.60;9.30;;;10.30;99.90;;;;;;4903270;29;20466;-48
2021/11/21 03:43:28;;;;;;;18.27;10.27;;;10.30;99.90;;;;;;4904134;29;20452;-49
2021/11/21 03:45:54;;;;;;;19.30;9.13;;;10.30;99.90;;;;;;4903420;29;20467;-50
2021/11/21 03:48:23;;;;;;;18.80;9.90;;;10.30;99.90;;;;;;4902990;29;20444;-51
2021/11/21 03:50:51;;;;;;;20.30;7.43;;;10.30;99.90;;;;;;4903034;29;20478;-48
2021/11/21 03:53:21;;;;;;;18.30;10.60;;;10.30;99.90;;;;;;4902746;29;20493;-54
2021/11/21 03:55:48;;;;;;;19.23;9.07;;;10.30;99.90;;;;;;4903157;29;20470;-49
2021/11/21 03:58:18;;;;;;;17.87;9.10;;;10.20;99.90;;;;;;4903208;29;20483;-51
2021/11/21 04:00:46;;;;;;;17.80;8.37;;;10.20;99.90;;;;;;4902616;29;20467;-51
2021/11/21 04:03:14;;;;;;;21.13;9.60;;;10.20;99.90;;;;;;4902523;29;20443;-53
2021/11/21 04:05:42;;;;;;;17.50;8.53;;;10.20;99.90;;;;;;4903144;29;20483;-50
2021/11/21 04:08:09;;;;;;;21.80;11.77;;;10.10;99.90;;;;;;4902795;29;20478;-53
2021/11/21 04:10:36;;;;;;;19.40;8.53;;;10.20;99.90;;;;;;4902707;29;20475;-51
2021/11/21 04:13:04;;;;;;;15.90;9.00;;;10.20;99.90;;;;;;4903157;29;20427;-51
2021/11/21 04:15:34;;;;;;;17.33;8.47;;;10.20;99.90;;;;;;4903238;29;20485;-63
2021/11/21 04:18:01;;;;;;;20.93;9.13;;;10.10;99.90;;;;;;4903043;29;20455;-50
2021/11/21 04:20:29;;;;;;;23.77;10.27;;;10.10;99.90;;;;;;4902435;29;20504;-49
2021/11/21 04:22:57;;;;;;;18.20;11.90;;;10.10;99.90;;;;;;4902693;29;20873;-51
2021/11/21 04:25:24;;;;;;;17.87;9.00;;;10.10;99.90;;;;;;4902686;29;21605;-54
2021/11/21 04:27:51;;;;;;;13.33;8.63;;;10.10;99.90;;;;;;4902733;29;20447;-47
2021/11/21 04:30:18;;;;;;;20.87;9.67;;;10.10;99.90;;;;;;4902426;29;20478;-52
2021/11/21 04:32:48;;;;;;;15.83;8.10;;;10.10;99.90;;;;;;4902491;29;20423;-51
2021/11/21 04:35:17;;;;;;;18.17;9.03;;;10.20;99.90;;;;;;4902703;29;20508;-54
2021/11/21 04:37:45;;;;;;;21.07;9.13;;;10.10;99.90;;;;;;4902816;29;20470;-48
2021/11/21 04:40:15;;;;;;;19.13;8.20;;;10.10;99.90;;;;;;4901446;29;20467;-51
2021/11/21 04:42:45;;;;;;;16.70;8.63;;;10.10;99.90;;;;;;4903022;29;20424;-55
2021/11/21 04:45:12;;;;;;;17.37;8.53;;;10.20;99.90;;;;;;4902624;29;20456;-50
2021/11/21 04:47:39;;;;;;;16.83;8.73;;;10.10;99.90;;;;;;4902694;29;20480;-50
2021/11/21 04:50:08;;;;;;;18.60;8.70;;;10.10;99.90;;;;;;4902012;29;20447;-53
2021/11/21 04:52:35;;;;;;;17.83;9.70;;;10.10;99.90;;;;;;4902290;29;20440;-52
2021/11/21 04:55:02;;;;;;;24.53;9.47;;;10.00;99.90;;;;;;4902558;29;20463;-62
2021/11/21 04:57:31;;;;;;;18.63;8.73;;;10.00;99.90;;;;;;4902196;29;20455;-47
2021/11/21 04:59:58;;;;;;;21.90;9.90;;;10.00;99.90;;;;;;4902272;29;20861;-52
2021/11/21 05:02:24;;;;;;;20.83;9.27;;;10.00;99.90;;;;;;4902047;29;20547;-50
2021/11/21 05:04:51;;;;;;;11.37;7.40;;;10.10;99.90;;;;;;4902107;29;20460;-49
2021/11/21 05:07:18;;;;;;;17.93;8.37;;;10.00;99.90;;;;;;4901774;29;20479;-52
2021/11/21 05:09:45;;;;;;;22.73;9.73;;;10.00;99.90;;;;;;4902329;29;20444;-50
2021/11/21 05:12:12;;;;;;;19.93;8.90;;;10.10;99.90;;;;;;4902055;29;20483;-51
2021/11/21 05:14:42;;;;;;;16.60;8.73;;;10.10;99.90;;;;;;4902605;29;20475;-53
2021/11/21 05:17:09;;;;;;;32.03;11.90;;;10.10;99.90;;;;;;4901776;29;20483;-54
2021/11/21 05:19:36;;;;;;;16.90;8.80;;;10.10;99.90;;;;;;4902370;29;20471;-53
2021/11/21 05:22:03;;;;;;;16.53;8.00;;;10.10;99.90;;;;;;4902312;29;20479;-56
2021/11/21 05:24:30;;;;;;;22.00;8.33;;;10.00;99.90;;;;;;4901913;29;20464;-48
2021/11/21 05:26:57;;;;;;;18.10;8.70;;;10.00;99.90;;;;;;4901894;29;20475;-53
2021/11/21 05:29:24;;;;;;;15.47;8.67;;;9.90;99.90;;;;;;4902762;29;20427;-53
2021/11/21 05:31:53;;;;;;;23.03;10.23;;;9.90;99.90;;;;;;4901779;29;20455;-52
2021/11/21 05:34:19;;;;;;;18.00;9.70;;;9.90;99.90;;;;;;4901688;29;20463;-52
2021/11/21 05:36:46;;;;;;;22.90;9.53;;;9.90;99.90;;;;;;4901928;29;20472;-48
2021/11/21 05:39:16;;;;;;;21.83;10.00;;;9.90;99.90;;;;;;4901499;29;20487;-55
2021/11/21 05:41:43;;;;;;;16.37;8.17;;;9.90;99.90;;;;;;4901608;29;20487;-55
2021/11/21 05:44:10;;;;;;;21.77;11.03;;;9.90;99.90;;;;;;4901885;29;20487;-55
2021/11/21 05:46:37;;;;;;;18.83;8.77;;;9.90;99.90;;;;;;4901922;29;20499;-54
2021/11/21 05:49:05;;;;;;;23.10;10.03;;;9.90;99.90;;;;;;4902056;29;20466;-58
2021/11/21 05:51:32;;;;;;;15.73;8.10;;;9.90;99.90;;;;;;4904304;29;20459;-59
2021/11/21 05:53:59;;;;;;;18.03;8.60;;;9.90;99.90;;;;;;4908352;29;20447;-55
2021/11/21 05:56:26;;;;;;;18.83;9.73;;;9.90;99.90;;;;;;4908109;29;20474;-53
2021/11/21 05:58:53;;;;;;;14.40;7.00;;;9.90;99.90;;;;;;4907877;29;20489;-51
2021/11/21 06:01:21;;;;;;;28.17;10.40;;;9.90;99.90;;;;;;4907616;29;20479;-53
2021/11/21 06:03:50;;;;;;;24.43;10.43;;;9.90;99.90;;;;;;4908194;29;20503;-50
2021/11/21 06:06:19;;;;;;;13.27;7.30;;;9.80;99.90;;;;;;4908037;29;20490;-51
2021/11/21 06:08:46;;;;;;;16.70;7.97;;;9.80;99.90;;;;;;4907972;29;20436;-50
2021/11/21 06:11:13;;;;;;;19.33;9.40;;;9.80;99.90;;;;;;4908153;29;20443;-52
2021/11/21 06:13:45;;;;;;;18.80;8.63;;;9.80;99.90;;;;;;4908018;29;20440;-49
2021/11/21 06:16:12;;;;;;;10.10;5.70;;;9.80;99.90;;;;;;4908252;29;20446;-53
2021/11/21 06:18:39;;;;;;;13.37;6.87;;;9.80;99.90;;;;;;4907039;29;20435;-52
2021/11/21 06:21:06;;;;;;;10.80;6.23;;;9.80;99.90;;;;;;4907224;29;20451;-49
2021/11/21 06:23:35;;;;;;;16.87;7.97;;;9.70;99.90;;;;;;4907484;29;20411;-52
2021/11/21 06:26:02;;;;;;;19.27;9.57;;;9.80;99.90;;;;;;4907166;29;20459;-50
2021/11/21 06:28:29;;;;;;;15.23;6.97;;;9.80;99.90;;;;;;4907253;29;20451;-55
2021/11/21 06:30:58;;;;;;;11.50;7.00;;;9.70;99.90;;;;;;4907204;29;20443;-51
2021/11/21 06:33:25;;;;;;;15.00;7.47;;;9.80;99.90;;;;;;4907153;29;20438;-57
2021/11/21 06:35:52;;;;;;;19.10;7.40;;;9.70;99.90;;;;;;4907113;29;20463;-51
2021/11/21 06:38:20;;;;;;;14.00;8.87;;;9.80;99.90;;;;;;4906913;29;20453;-52
2021/11/21 06:40:49;;;;;;;15.23;8.37;;;9.80;99.90;;;;;;4907090;29;20527;-50
2021/11/21 06:43:16;;;;;;;9.63;5.70;;;9.70;99.90;;;;;;4907055;29;20446;-48
2021/11/21 06:45:43;;;;;;;15.43;7.20;;;9.70;99.90;;;;;;4906769;29;20459;-64
2021/11/21 06:48:12;;;;;;;21.67;8.33;;;9.80;99.90;;;;;;4907878;29;20462;-63
2021/11/21 06:50:39;;;;;;;17.90;9.57;;;9.80;99.90;;;;;;4907569;29;20443;-67
2021/11/21 06:53:07;;;;;;;19.67;8.07;;;9.70;99.90;;;;;;4907352;29;20431;-50
2021/11/21 06:55:34;;;;;;;14.70;9.70;;;9.80;99.90;;;;;;4907412;29;20467;-51
2021/11/21 06:58:02;;;;;;;16.20;7.47;;;9.80;99.90;;;;;;4907682;29;20435;-52
2021/11/21 07:00:31;;;;;;;13.87;6.20;;;9.80;99.90;;;;;;4907243;29;20455;-49
2021/11/21 07:02:59;;;;;;;22.53;7.50;;;9.80;99.90;;;;;;4905214;29;20483;-52
2021/11/21 07:05:26;;;;;;;15.00;6.20;;;9.80;99.90;;;;;;4904189;29;20504;-50
2021/11/21 07:07:57;;;;;;;15.73;7.93;;;9.80;99.90;;;;;;4904434;29;20467;-50
2021/11/21 07:10:24;;;;;;;21.20;7.67;;;9.80;99.90;;;;;;4904371;29;20475;-49
2021/11/21 07:12:51;;;;;;;12.23;6.40;;;9.80;99.90;;;;;;4903880;29;20523;-51
2021/11/21 07:15:19;;;;;;;12.60;6.90;;;9.90;99.90;;;;;;4904129;29;20451;-52
2021/11/21 07:17:49;;;;;;;15.60;7.23;;;9.90;99.90;;;;;;4904357;29;20475;-53
2021/11/21 07:20:16;;;;;;;12.80;6.03;;;9.90;99.90;;;;;;4904044;29;20515;-51
2021/11/21 07:22:44;;;;;;;14.03;7.67;;;9.90;99.90;;;;;;4903876;29;20479;-50
2021/11/21 07:25:12;;;;;;;11.77;6.17;;;9.90;99.90;;;;;;4904394;29;20435;-49
2021/11/21 07:27:41;;;;;;;14.63;7.33;;;9.90;99.90;;;;;;4903872;29;20463;-53
2021/11/21 07:30:08;;;;;;;17.17;9.20;;;9.80;99.90;;;;;;4903946;29;20431;-50
2021/11/21 07:32:36;;;;;;;13.70;6.83;;;9.80;99.90;;;;;;4903705;29;20474;-51
2021/11/21 07:35:04;;;;;;;11.93;5.87;;;9.80;99.90;;;;;;4903772;29;20483;-47
2021/11/21 07:37:33;;;;;;;13.43;5.77;;;9.80;99.90;;;;;;4903466;29;20489;-51
2021/11/21 07:40:06;;;;;;;16.37;6.40;;;9.80;99.90;;;;;;4904352;29;20475;-52
2021/11/21 07:42:33;;;;;;;14.97;6.83;;;9.80;99.90;;;;;;4904021;29;20471;-63
2021/11/21 07:45:00;;;;;;;14.27;7.10;;;9.80;99.90;;;;;;4904020;29;20455;-57
2021/11/21 07:47:27;;;;;;;13.17;8.30;;;9.70;99.90;;;;;;4903617;29;20486;-51
2021/11/21 07:49:57;;;;;;;16.50;7.10;;;9.70;99.90;;;;;;4903503;29;20882;-50
2021/11/21 07:52:25;;;;;;;17.60;6.37;;;9.80;99.90;;;;;;4903500;29;20486;-49
2021/11/21 07:54:54;;;;;;;14.70;7.60;;;9.80;99.90;;;;;;4903052;29;20465;-50
2021/11/21 07:57:21;;;;;;;15.67;7.10;;;9.70;99.90;;;;;;4903457;29;20470;-51
2021/11/21 07:59:48;;;;;;;18.13;6.40;;;9.60;99.90;;;;;;4902946;29;20471;-50
2021/11/21 08:02:15;;;;;;;16.50;6.47;;;9.60;99.90;;;;;;4902981;29;20484;-55
2021/11/21 08:04:42;;;;;;;12.20;5.97;;;9.60;99.90;;;;;;4903522;29;20480;-51
2021/11/21 08:07:13;;;;;;;18.23;8.03;;;9.60;99.90;;;;;;4903446;29;20443;-49
2021/11/21 08:09:43;;;;;;;10.97;5.93;;;9.60;99.90;;;;;;4903348;29;20428;-53
2021/11/21 08:12:10;;;;;;;15.50;5.90;;;9.60;99.90;;;;;;4903386;29;20516;-54
2021/11/21 08:14:38;;;;;;;15.00;7.30;;;9.60;99.90;;;;;;4902994;29;20439;-51
2021/11/21 08:17:05;;;;;;;12.07;4.83;;;9.60;99.90;;;;;;4902795;29;20463;-50
2021/11/21 08:19:32;;;;;;;14.60;6.03;;;9.50;99.90;;;;;;4902975;29;20475;-50
2021/11/21 08:22:01;;;;;;;14.87;6.57;;;9.50;99.90;;;;;;4902834;29;20542;-49
2021/11/21 08:24:29;;;;;;;12.93;6.40;;;9.50;99.90;;;;;;4902688;29;20470;-51
2021/11/21 08:26:58;;;;;;;10.80;5.63;;;9.50;99.90;;;;;;4902612;29;20447;-49
2021/11/21 08:29:26;;;;;;;10.37;5.83;;;9.50;99.90;;;;;;4903185;29;20447;-52
2021/11/21 08:31:56;;;;;;;19.13;7.30;;;9.50;99.90;;;;;;4903066;29;20466;-50
2021/11/21 08:34:23;;;;;;;18.83;6.70;;;9.50;99.90;;;;;;4902955;29;20845;-50
2021/11/21 08:36:50;;;;;;;13.00;6.00;;;9.50;99.90;;;;;;4903062;29;20456;-57
2021/11/21 08:39:20;;;;;;;14.40;7.90;;;9.50;99.90;;;;;;4902496;29;20462;-50
2021/11/21 08:41:48;;;;;;;13.80;7.10;;;9.50;99.90;;;;;;4902543;29;20453;-51
2021/11/21 08:44:17;;;;;;;11.10;5.53;;;9.40;99.90;;;;;;4902449;29;20721;-46
2021/11/21 08:46:44;;;;;;;17.60;7.17;;;9.40;99.90;;;;;;4902034;29;20455;-54
2021/11/21 08:49:11;;;;;;;14.63;7.97;;;9.40;99.90;;;;;;4902475;29;20478;-50
2021/11/21 08:51:40;;;;;;;13.97;6.90;;;9.40;99.90;;;;;;4902253;29;20493;-51
2021/11/21 08:54:11;;;;;;;18.67;7.50;;;9.40;99.90;;;;;;4901759;29;20468;-50
2021/11/21 08:56:38;;;;;;;15.47;6.80;;;9.30;99.90;;;;;;4902550;29;20442;-48
2021/11/21 08:59:06;;;;;;;11.97;6.47;;;9.30;99.90;;;;;;4902160;29;20443;-52
2021/11/21 09:01:34;;;;;;;19.67;7.67;;;9.40;99.90;;;;;;4901971;29;20650;-56
2021/11/21 09:04:01;;;;;;;12.47;6.40;;;9.40;99.90;;;;;;4902307;29;20471;-51
2021/11/21 09:06:28;;;;;;;14.07;7.10;;;9.40;99.90;;;;;;4902089;29;20447;-52
2021/11/21 09:09:06;;;;;;;15.17;6.83;;;9.40;99.90;;;;;;4901896;29;20463;-51
2021/11/21 09:11:35;;;;;;;15.90;7.27;;;9.50;99.90;;;;;;4901649;29;20447;-50
2021/11/21 09:14:02;;;;;;;14.80;6.03;;;9.50;99.90;;;;;;4901908;29;20475;-50
2021/11/21 09:16:31;;;;;;;23.03;8.57;;;9.60;99.90;;;;;;4901709;29;20520;-49
2021/11/21 09:19:01;;;;;;;10.53;5.47;;;9.60;99.90;;;;;;4901684;29;20468;-54
2021/11/21 09:21:28;;;;;;;12.47;6.10;;;9.60;99.90;;;;;;4901420;29;20519;-54
2021/11/21 09:23:55;;;;;;;13.43;6.27;;;9.60;99.90;;;;;;4901837;29;20463;-51
2021/11/21 09:26:22;;;;;;;11.80;7.17;;;9.50;99.90;;;;;;4901272;29;20451;-49
2021/11/21 09:28:49;;;;;;;11.53;5.37;;;9.50;99.90;;;;;;4901872;29;20484;-51
2021/11/21 09:31:16;;;;;;;11.60;5.97;;;9.50;99.90;;;;;;4901846;29;20459;-51
2021/11/21 09:33:45;;;;;;;16.10;7.27;;;9.50;99.90;;;;;;4902043;29;20467;-67
2021/11/21 09:36:12;;;;;;;17.50;6.50;;;9.50;99.90;;;;;;4902065;29;20447;-56
2021/11/21 09:38:39;;;;;;;11.20;5.90;;;9.50;99.90;;;;;;4901700;29;20475;-56
2021/11/21 09:41:06;;;;;;;11.97;7.10;;;9.50;99.90;;;;;;4901823;29;20490;-49
2021/11/21 09:43:34;;;;;;;14.43;6.70;;;9.60;99.90;;;;;;4901683;29;20475;-50
2021/11/21 09:46:02;;;;;;;12.17;5.83;;;9.70;99.90;;;;;;4901468;29;20452;-54
2021/11/21 09:48:31;;;;;;;13.87;6.40;;;9.70;99.90;;;;;;4901366;29;20553;-49
2021/11/21 09:51:00;;;;;;;14.27;6.80;;;9.60;99.90;;;;;;4901799;29;20472;-49
2021/11/21 09:53:28;;;;;;;12.47;5.13;;;9.50;99.90;;;;;;4901481;29;20467;-50
2021/11/21 09:55:55;;;;;;;12.80;5.77;;;9.50;99.90;;;;;;4901854;29;20458;-50
2021/11/21 09:58:23;;;;;;;10.83;5.80;;;9.60;99.90;;;;;;4902035;29;20444;-49
2021/11/21 10:00:50;;;;;;;15.30;6.73;;;9.50;99.90;;;;;;4901717;29;20487;-61
2021/11/21 10:03:19;;;;;;;10.90;7.30;;;9.60;99.90;;;;;;4901672;29;20483;-51
2021/11/21 10:05:47;;;;;;;13.37;6.13;;;9.60;99.90;;;;;;4901684;29;20467;-53
2021/11/21 10:08:18;;;;;;;16.23;7.50;;;9.60;99.90;;;;;;4901812;29;20467;-52
2021/11/21 10:10:47;;;;;;;13.87;6.33;;;9.70;99.90;;;;;;4901726;29;20431;-53
2021/11/21 10:13:29;;;;;;;10.97;5.30;;;9.70;99.90;;;;;;4901489;29;20478;-53
2021/11/21 10:15:58;;;;;;;13.83;5.40;;;9.60;99.90;;;;;;4901709;29;20518;-48
2021/11/21 10:18:25;;;;;;;10.77;5.20;;;9.60;99.90;;;;;;4901582;29;20455;-49
2021/11/21 10:20:53;;;;;;;15.80;7.03;;;9.60;99.90;;;;;;4894478;29;20551;-55
2021/11/21 10:23:22;;;;;;;16.10;7.80;;;9.50;99.90;;;;;;4881222;29;20843;-54
2021/11/21 10:25:52;;;;;;;11.13;6.27;;;9.60;99.90;;;;;;4880778;29;20475;-52
2021/11/21 10:28:22;;;;;;;10.53;6.27;;;9.50;99.90;;;;;;4881393;29;20475;-52
2021/11/21 10:31:08;;;;;;;10.23;6.33;;;9.60;99.90;;;;;;4880856;29;20841;-50
2021/11/21 10:33:38;;;;;;;12.10;4.77;;;9.60;99.90;;;;;;4880541;29;20535;-49
2021/11/21 10:36:07;;;;;;;13.00;5.80;;;9.60;99.90;;;;;;4880682;29;20467;-49
2021/11/21 10:38:39;;;;;;;14.17;6.70;;;9.50;99.90;;;;;;4882217;29;20497;-55
2021/11/21 10:41:08;;;;;;;11.40;6.37;;;9.60;99.90;;;;;;4884698;29;20487;-51
2021/11/21 10:43:47;;;;;;;10.07;5.40;;;9.50;99.90;;;;;;4884563;29;20551;-51
2021/11/21 10:46:40;;;;;;;12.87;5.50;;;9.50;99.90;;;;;;4884366;29;20449;-47
2021/11/21 10:49:16;;;;;;;13.57;8.57;;;9.60;99.90;;;;;;4884149;29;20829;-49
2021/11/21 10:51:45;;;;;;;10.97;5.80;;;9.60;99.90;;;;;;4884889;29;20522;-52
2021/11/21 10:54:21;;;;;;;11.80;5.60;;;9.60;99.90;;;;;;4884404;29;20542;-52
2021/11/21 10:56:49;;;;;;;11.33;6.80;;;9.60;99.90;;;;;;4883765;29;20510;-53
2021/11/21 10:59:15;;;;;;;12.67;6.50;;;9.50;99.90;;;;;;4883870;29;20507;-51
2021/11/21 11:01:43;;;;;;;8.90;5.93;;;9.50;99.90;;;;;;4883620;29;20566;-52
2021/11/21 11:04:12;;;;;;;10.40;5.50;;;9.50;99.90;;;;;;4884518;29;20475;-48
2021/11/21 11:06:41;;;;;;;16.27;6.57;;;9.50;99.90;;;;;;4884235;29;20479;-60
2021/11/21 11:09:15;;;;;;;14.20;7.07;;;9.50;99.90;;;;;;4884053;29;20490;-51
2021/11/21 11:11:45;;;;;;;14.13;6.17;;;9.50;99.90;;;;;;4883739;29;20873;-52
2021/11/21 11:14:18;;;;;;;14.23;8.40;;;9.50;99.90;;;;;;4883584;29;21117;-50
2021/11/21 11:16:46;;;;;;;13.73;5.97;;;9.60;99.90;;;;;;4883552;29;20559;-53
2021/11/21 11:19:17;;;;;;;11.53;6.20;;;9.60;99.90;;;;;;4884007;29;20616;-46
2021/11/21 11:21:44;;;;;;;14.17;7.33;;;9.70;99.90;;;;;;4883535;29;20934;-51
2021/11/21 11:24:11;;;;;;;10.90;5.70;;;9.70;99.90;;;;;;4883482;29;20483;-54
2021/11/21 11:26:38;;;;;;;10.60;6.60;;;9.70;99.90;;;;;;4883917;29;20808;-51
2021/11/21 11:29:16;;;;;;;15.20;6.77;;;9.70;99.90;;;;;;4883256;29;20471;-51
2021/11/21 11:31:43;;;;;;;14.10;8.07;;;9.60;99.90;;;;;;4884140;29;20428;-52
2021/11/21 11:34:36;;;;;;;13.67;7.13;;;9.60;99.90;;;;;;4883168;29;20475;-54
2021/11/21 11:37:10;;;;;;;8.90;6.07;;;9.60;99.90;;;;;;4883683;29;20439;-52
2021/11/21 11:39:42;;;;;;;8.17;4.13;;;9.70;99.90;;;;;;4883339;29;20487;-53
2021/11/21 11:42:38;;;;;;;10.17;5.83;;;9.70;99.90;;;;;;4883647;29;20486;-55
2021/11/21 11:45:10;;;;;;;14.87;6.30;;;9.80;99.90;;;;;;4883252;29;20535;-53
2021/11/21 11:47:38;;;;;;;9.77;5.53;;;9.80;99.90;;;;;;4883028;29;20878;-51
2021/11/21 11:50:07;;;;;;;9.30;6.27;;;9.80;99.90;;;;;;4882473;29;20487;-53
2021/11/21 11:52:54;;;;;;;11.50;6.10;;;9.80;99.90;;;;;;4883086;29;20467;-49
2021/11/21 11:55:22;;;;;;;11.00;7.10;;;9.80;99.90;;;;;;4883586;29;20479;-50
2021/11/21 11:57:49;;;;;;;11.67;5.07;;;9.90;99.90;;;;;;4882774;29;21065;-51
2021/11/21 12:00:37;;;;;;;8.47;5.10;;;10.00;99.90;;;;;;4883686;29;20498;-59
2021/11/21 12:03:39;;;;;;;10.17;6.30;;;10.00;99.90;;;;;;4882621;29;20436;-51
2021/11/21 12:06:06;;;;;;;18.83;7.73;;;10.00;99.90;;;;;;4882870;29;20459;-52
2021/11/21 12:08:33;;;;;;;12.97;5.90;;;10.00;99.90;;;;;;4882523;29;20558;-49
2021/11/21 12:11:01;;;;;;;13.40;7.57;;;10.00;99.90;;;;;;4882933;29;20447;-57
2021/11/21 12:13:31;;;;;;;15.00;7.90;;;10.00;99.90;;;;;;4883496;29;20458;-52
2021/11/21 12:16:01;;;;;;;14.33;9.10;;;10.00;99.90;;;;;;4882636;29;20470;-49
2021/11/21 12:18:58;;;;;;;10.57;6.53;;;10.00;99.90;;;;;;4882854;29;20507;-49
2021/11/21 12:21:40;;;;;;;11.00;7.07;;;10.10;99.90;;;;;;4882878;29;20962;-55
2021/11/21 12:24:23;;;;;;;9.97;7.20;;;10.10;99.90;;;;;;4883656;29;20475;-55
2021/11/21 12:26:51;;;;;;;12.70;6.30;;;10.10;99.90;;;;;;4880652;29;20850;-52
2021/11/21 12:29:34;;;;;;;9.40;5.33;;;10.10;99.90;;;;;;4882441;29;20502;-58
2021/11/21 12:32:22;;;;;;;13.50;5.90;;;10.10;99.90;;;;;;4882163;29;20436;-54
2021/11/21 12:34:50;;;;;;;11.47;6.80;;;10.10;99.90;;;;;;4882085;29;21031;-56
2021/11/21 12:37:25;;;;;;;13.33;7.23;;;10.10;99.90;;;;;;4882313;29;20922;-56
2021/11/21 12:39:54;;;;;;;16.50;6.60;;;10.10;99.90;;;;;;4882171;29;20525;-56
2021/11/21 12:42:26;;;;;;;10.20;5.33;;;10.10;99.90;;;;;;4882310;29;20483;-59
2021/11/21 12:45:09;;;;;;;11.00;6.10;;;10.20;99.90;;;;;;4882180;29;20489;-55
2021/11/21 12:47:38;;;;;;;8.03;5.57;;;10.20;99.90;;;;;;4882165;29;20542;-56
2021/11/21 12:50:07;;;;;;;11.77;5.97;;;10.20;99.90;;;;;;4882059;29;20549;-56